ASN logo
ASN Wikibase Occurrence # 203224
Last updated: 25 November 2019
This information is added by users of ASN. Neither ASN nor the Flight Safety Foundation are responsible for the completeness or correctness of this information. If you feel this information is incomplete or incorrect, you can submit corrected information.

Date:22-DEC-2017
Time:11:37 LT
Type:Silhouette image of generic E145 model; specific model in this crash may look slightly different
Embraer ERJ-145EP
Owner/operator:bmi Regional
Registration: G-CKAG
C/n / msn: 145118
Fatalities:Fatalities: 0 / Occupants: 25
Other fatalities:0
Aircraft damage: Minor
Location:Bristol Airport (BRS/EGGD), North Somerset -   United Kingdom
Phase: Landing
Nature:International Scheduled Passenger
Departure airport:Frankfurt (FRA/EDDF)
Destination airport:Bristol Airport (BRS/EGGD)
Narrative:
The aerodrome was closed for almost the rest of the day as result and re-opened after about 13 hours. The airport reported after landing the aircraft went off the runway while taxiing. The passengers disembarked and were taken to the terminal. The aircraft was towed to the apron.

Related NOTAM:
C6576/17 - AD CLOSED DUE INCIDENT. 22 DEC 13:34 2017 UNTIL 22 DEC 18:00 2017. CREATED: 22 DEC 13:35 2017

Weather about the time of the incident (1136Z):
EGGD 221150Z AUTO 25004KT 0200 R27/0400 FG VV/// 10/10 Q1035
EGGD 221120Z AUTO VRB02KT 0300 R27/0500 FG VV/// 10/10 Q1035
EGGD 221050Z AUTO VRB03KT 0150 R27/0325 FG VV/// 10/10 Q1035

The AAIB summary of the incident was as follows:

The flight crew were conducting an ILS Category II approach and landing on Runway 27 at Bristol Airport. On touchdown they noticed that the aircraft de-rotated sharply. The pilot flying (PF) was unable to maintain directional control during the landing roll and the aircraft ran off the left side of the runway onto the grass. At some point during the landing the throttles were moved forward, reducing the rate of deceleration. As the aircraft left the paved surface the crew realised that the landing had been carried out with the Emergency/Parking brake set. The aircraft may have remained on the runway surface but for the addition of forward thrust during the landing roll.

Following the accident, the operator introduced a revision to the Landing Checklist to require the handling pilot to confirm the parking brake is OFF."

Damage sustained to airframe: "Left main landing gear fairing strut broken; wheel rims and tyres damaged"

Sources:

https://www.bristolpost.co.uk/news/bristol-news/airplane-caused-cancellations-delays-arrival-971761
http://www.bbc.com/news/uk-england-bristol-42457193
https://www.flightradar24.com/data/flights/bm1822#fe95764http://www.aviation24.be/airlines/bmi-regional/bmi-regional-embraer-145-skidded-runway-bristol-airport/
http://aerossurance.com/safety-management/hf-parking-brake-speed-brake/
https://www.gov.uk/government/publications/aaib-current-field-investigations/air-accidents-investigation-branch-current-field-investigations


Revision history:

Date/timeContributorUpdates
22-Dec-2017 13:43 gerard57 Added
22-Dec-2017 13:48 gerard57 Updated [Time, Aircraft type, Source, Narrative]
22-Dec-2017 13:50 harro Updated [Aircraft type, Registration, Cn, Operator, Location, Departure airport, Destination airport, Source]
22-Dec-2017 14:16 harro Updated [Time, Narrative]
22-Dec-2017 14:28 Iceman 29 Updated [Embed code]
22-Dec-2017 22:44 Iceman 29 Updated [Embed code]
11-May-2018 00:49 Dr. John Smith Updated [Location, Destination airport, Source, Embed code, Narrative]
11-May-2018 00:49 Dr. John Smith Updated [Embed code]
11-May-2018 00:54 Dr. John Smith Updated [Source, Embed code]
18-Oct-2018 17:31 Dr.John Smith Updated [Source]
10-Jan-2019 20:56 Dr. John Smith Updated [Destination airport, Embed code]
10-Jan-2019 21:07 Dr. John Smith Updated [Embed code, Narrative]
13-Jan-2019 10:34 Aerossurance Updated [Time, Location, Phase, Departure airport, Source, Damage, Narrative]
10-Jul-2019 06:41 FenixDigital Updated [Narrative]

Corrections or additions? ... Edit this accident description